Ben-my-chree — MXLG6 — position and weather

sailwx.info

Track history (hours):
 
Tides and Currents Weather Stations Pressure Air Temp Water Temp Dewpoint Dewpoint Depression Visibility Wind Speed Wind Dir Waves Ship Positions

Ben-my-chree

Operator: The Isle of Man Steam Packet Co Ltd

Last reported at 2018-Feb-25 22:47 UTC. Time now 2018-Feb-26 01:11 UTC.
Position N 53°56' W 003°07'.

Length 120 m; draft 5 m.

Type: Passenger vessel. MMSI: 234983000.

Date/timePositionNaut miles runAvg speedWind from/ knotsBaromVisibWave heightAir tempDewpointWater temp
2018-Feb-25 22:47N 53°56' W 003°07'516.2
2018-Feb-25 22:27N 53°56' W 003°16'716.0
2018-Feb-25 22:00N 53°56' W 003°28'35 8.8
2018-Feb-25 18:04N 54°09' W 004°23'3717.6
2018-Feb-25 15:57N 53°43' W 003°38'817.4
2018-Feb-25 15:30N 53°37' W 003°29'917.5
2018-Feb-25 15:01N 53°32' W 003°17'714.6
2018-Feb-25 14:30N 53°30' W 003°05'612.9
2018-Feb-25 14:00N 53°24' W 003°01'0 0.0
2018-Feb-25 13:28N 53°24' W 003°01'0 0.0
2018-Feb-25 12:58N 53°24' W 003°01'0 0.0
2018-Feb-25 12:30N 53°24' W 003°01'612.3
2018-Feb-25 12:00N 53°29' W 003°05'61 3.4
2018-Feb-24 17:59N 54°09' W 004°25'3817.9
2018-Feb-24 15:52N 53°42' W 003°39'617.6
2018-Feb-24 15:31N 53°38' W 003°31'917.3
2018-Feb-24 15:00N 53°33' W 003°20'816.3
2018-Feb-24 14:30N 53°31' W 003°06'815.4
2018-Feb-24 14:00N 53°24' W 003°00'0 0.4
2018-Feb-24 13:30N 53°24' W 003°01'0 0.0
2018-Feb-24 13:00N 53°24' W 003°01'0 0.0
2018-Feb-24 12:30N 53°24' W 003°01'510.6
2018-Feb-24 12:00N 53°29' W 003°04'712.9
2018-Feb-24 11:30N 53°31' W 003°15'816.6
2018-Feb-24 11:00N 53°36' W 003°27'816.4
2018-Feb-24 10:30N 53°41' W 003°37'816.0
2018-Feb-24 10:00N 53°47' W 003°46'14 2.1
2018-Feb-24 03:31N 53°56' W 003°29'617.1
2018-Feb-24 03:11N 53°56' W 003°19'317.0
2018-Feb-24 02:59N 53°56' W 003°14'816.1
2018-Feb-24 02:31N 53°58' W 003°01'5 8.8
2018-Feb-24 01:55N 54°02' W 002°55'0 0.0
2018-Feb-24 01:25N 54°02' W 002°55'0 0.0
2018-Feb-24 00:49N 54°02' W 002°55'0 0.0
2018-Feb-24 00:30N 54°02' W 002°55'3 6.1
2018-Feb-24 00:00N 54°00' W 002°59'611.5
2018-Feb-23 23:30N 53°57' W 003°07'510.9
2018-Feb-23 23:00N 53°56' W 003°16'714.1
2018-Feb-23 22:31N 53°56' W 003°28'714.7
2018-Feb-23 22:00N 53°58' W 003°39'2 0.3
2018-Feb-23 15:50N 53°57' W 003°36'617.3
2018-Feb-23 15:30N 53°56' W 003°27'917.3
2018-Feb-23 15:00N 53°56' W 003°13'816.0
2018-Feb-23 14:30N 53°59' W 003°00'4 7.0
2018-Feb-23 13:54N 54°02' W 002°55'0 0.0
2018-Feb-23 13:24N 54°02' W 002°55'0 0.0
2018-Feb-23 13:00N 54°02' W 002°55'0 0.0
2018-Feb-23 12:29N 54°02' W 002°55'5 9.6
2018-Feb-23 12:00N 53°59' W 003°01'917.5
2018-Feb-23 11:31N 53°55' W 003°14'917.2
2018-Feb-23 11:01N 53°56' W 003°29'816.5
2018-Feb-23 10:30N 53°59' W 003°42'5 0.8
2018-Feb-23 03:57N 53°57' W 003°33'817.6
2018-Feb-23 03:30N 53°55' W 003°21'917.1
2018-Feb-23 03:00N 53°57' W 003°06'815.5
2018-Feb-23 02:31N 54°02' W 002°56'1 1.3
2018-Feb-23 01:58N 54°02' W 002°55'0 0.0
2018-Feb-23 01:28N 54°02' W 002°55'0 0.0
2018-Feb-23 00:52N 54°02' W 002°55'0 0.0
2018-Feb-23 00:16N 54°02' W 002°55'0 0.0
2018-Feb-22 23:52N 54°02' W 002°55'0 0.4
2018-Feb-22 23:30N 54°02' W 002°55'611.2
2018-Feb-22 23:00N 53°58' W 003°02'714.5
2018-Feb-22 22:30N 53°55' W 003°14'917.3
2018-Feb-22 22:00N 53°56' W 003°28'815.0
2018-Feb-22 21:30N 53°58' W 003°40'16 2.5
2018-Feb-22 14:56N 53°56' W 003°13'12 4.2
2018-Feb-22 12:05N 54°02' W 002°55'717.3
2018-Feb-22 11:40N 53°57' W 003°04'318.9
2018-Feb-22 11:30N 53°56' W 003°09'918.2
2018-Feb-22 11:00N 53°56' W 003°25'917.2
2018-Feb-22 10:30N 53°58' W 003°39'16 2.1
2018-Feb-22 02:54N 53°56' W 003°12'716.6
2018-Feb-22 02:29N 53°58' W 003°02'2 0.5
2018-Feb-21 22:52N 53°58' W 003°04'716.7
2018-Feb-21 22:27N 53°55' W 003°16'715.8
2018-Feb-21 21:59N 53°55' W 003°28'815.8
2018-Feb-21 21:28N 53°58' W 003°41'3 0.5
2018-Feb-21 15:40N 53°57' W 003°36'318.1
2018-Feb-21 15:29N 53°56' W 003°31'917.9
2018-Feb-21 15:00N 53°56' W 003°16'917.1
2018-Feb-21 14:30N 53°58' W 003°02'611.7
2018-Feb-21 14:00N 54°02' W 002°55'0 0.0
2018-Feb-21 13:24N 54°02' W 002°55'0 0.0
2018-Feb-21 13:00N 54°02' W 002°55'0 0.0
2018-Feb-21 12:07N 54°02' W 002°55'0 0.5
2018-Feb-21 12:00N 54°02' W 002°55'714.5
2018-Feb-21 11:30N 53°57' W 003°04'918.9
2018-Feb-21 11:01N 53°55' W 003°20'918.0
2018-Feb-21 10:30N 53°57' W 003°35'917.9
2018-Feb-21 09:59N 54°00' W 003°50'14 2.1
2018-Feb-21 03:19N 53°56' W 003°28'1018.1
2018-Feb-21 02:47N 53°56' W 003°12'517.4
2018-Feb-21 02:30N 53°58' W 003°04'3 0.6
2018-Feb-20 22:31N 53°56' W 003°07'116.7
2018-Feb-20 22:27N 53°56' W 003°09'816.5
2018-Feb-20 21:59N 53°56' W 003°22'917.8
2018-Feb-20 21:30N 53°57' W 003°36'917.9
2018-Feb-20 21:00N 54°00' W 003°51'14 2.6
2018-Feb-20 15:40N 53°55' W 003°29'818.2
2018-Feb-20 15:14N 53°56' W 003°15'418.0
2018-Feb-20 15:00N 53°56' W 003°08'10 3.8
2018-Feb-20 12:29N 54°02' W 002°55'0 0.0
2018-Feb-20 12:00N 54°02' W 002°55'5 9.7
2018-Feb-20 11:31N 53°59' W 003°01'1019.7
2018-Feb-20 11:01N 53°55' W 003°16'918.5
2018-Feb-20 10:31N 53°56' W 003°32'1 0.1
2018-Feb-20 03:27N 53°56' W 003°32'817.6
2018-Feb-20 03:00N 53°56' W 003°19'917.4
2018-Feb-20 02:30N 53°57' W 003°05'714.7
2018-Feb-20 02:00N 54°02' W 002°55'0 0.0
2018-Feb-20 01:29N 54°02' W 002°55'0 0.0
2018-Feb-20 00:50N 54°02' W 002°55'0 0.0
2018-Feb-20 00:29N 54°02' W 002°55'0 0.0
2018-Feb-19 23:59N 54°02' W 002°55'0 0.0
2018-Feb-19 23:23N 54°02' W 002°55'1 1.7
2018-Feb-19 23:01N 54°02' W 002°56'917.0
2018-Feb-19 22:30N 53°56' W 003°07'713.8
2018-Feb-19 22:00N 53°55' W 003°19'918.4
2018-Feb-19 21:30N 53°57' W 003°34'11 1.7
2018-Feb-19 14:52N 53°55' W 003°15'718.7
2018-Feb-19 14:30N 53°58' W 003°04'4 1.2
2018-Feb-19 11:16N 53°56' W 003°09'619.7
2018-Feb-19 10:59N 53°56' W 003°19'918.8
2018-Feb-19 10:30N 53°57' W 003°34'15 1.3
2018-Feb-18 22:18N 53°56' W 003°08'619.6
2018-Feb-18 21:59N 53°55' W 003°19'918.9
2018-Feb-18 21:30N 53°57' W 003°34'12 2.2
2018-Feb-18 15:47N 53°45' W 003°42'518.3
2018-Feb-18 15:30N 53°41' W 003°36'918.9
2018-Feb-18 15:00N 53°35' W 003°24'917.8
2018-Feb-18 14:30N 53°32' W 003°10'917.7
2018-Feb-18 14:00N 53°25' W 003°01'1 1.9
2018-Feb-18 13:30N 53°24' W 003°01'0 0.0
2018-Feb-18 13:00N 53°24' W 003°01'0 0.0
2018-Feb-18 12:30N 53°24' W 003°01'0 0.0
2018-Feb-18 12:00N 53°24' W 003°01'611.6
2018-Feb-18 11:30N 53°29' W 003°05'713.8
2018-Feb-18 11:00N 53°31' W 003°16'918.4
2018-Feb-18 10:29N 53°37' W 003°29'918.7
2018-Feb-18 10:00N 53°43' W 003°40'918.6
2018-Feb-18 09:31N 53°49' W 003°52'15 2.4
2018-Feb-18 03:19N 53°56' W 003°29'919.4
2018-Feb-18 02:50N 53°56' W 003°13'719.7
2018-Feb-18 02:28N 53°59' W 003°01'5 1.6
2018-Feb-17 23:25N 54°02' W 002°55'918.7
2018-Feb-17 22:57N 53°57' W 003°07'918.8
2018-Feb-17 22:29N 53°56' W 003°22'918.3
2018-Feb-17 22:00N 53°57' W 003°37'21 4.5
2018-Feb-17 17:15N 54°03' W 004°11'2518.5
2018-Feb-17 15:56N 53°46' W 003°42'818.3
2018-Feb-17 15:30N 53°40' W 003°34'918.6
2018-Feb-17 15:00N 53°34' W 003°22'816.7
2018-Feb-17 14:30N 53°32' W 003°08'918.0
2018-Feb-17 14:00N 53°24' W 003°00'0 0.2
2018-Feb-17 13:28N 53°24' W 003°01'0 0.0
2018-Feb-17 12:58N 53°24' W 003°01'0 0.0
2018-Feb-17 12:26N 53°24' W 003°01'0 0.5
2018-Feb-17 12:00N 53°24' W 003°01'714.0
2018-Feb-17 11:30N 53°30' W 003°06'714.3
2018-Feb-17 11:00N 53°32' W 003°18'918.2
2018-Feb-17 10:30N 53°37' W 003°30'918.4
2018-Feb-17 10:00N 53°43' W 003°42'918.2
2018-Feb-17 09:30N 53°49' W 003°53'16 2.6
2018-Feb-17 03:16N 53°55' W 003°28'919.1
2018-Feb-17 02:49N 53°56' W 003°13'12 3.2
2018-Feb-16 23:00N 54°02' W 002°55'1018.7
2018-Feb-16 22:30N 53°56' W 003°08'918.0
2018-Feb-16 22:00N 53°56' W 003°23'918.0
2018-Feb-16 21:30N 53°57' W 003°38'6 1.0
2018-Feb-16 15:20N 53°56' W 003°28'919.0
2018-Feb-16 14:50N 53°56' W 003°12'3 0.8
2018-Feb-16 11:26N 53°56' W 003°08'817.7
2018-Feb-16 10:58N 53°56' W 003°22'817.6
2018-Feb-16 10:30N 53°57' W 003°35'31 6.0
2018-Feb-16 05:22N 54°09' W 004°24'4416.6
2018-Feb-16 02:42N 53°56' W 003°13'418.2
2018-Feb-16 02:28N 53°57' W 003°06'  
Track history (hours):
 
Tides and Currents Weather Stations Pressure Air Temp Water Temp Dewpoint Dewpoint Depression Visibility Wind Speed Wind Dir Waves Ship Positions

Ben-my-chree

Operator: The Isle of Man Steam Packet Co Ltd

Last reported at 2018-Feb-25 22:47 UTC. Time now 2018-Feb-26 01:11 UTC.
Position N 53°56' W 003°07'.

Length 120 m; draft 5 m.

Type: Passenger vessel. MMSI: 234983000.

Date/timePositionNaut miles runAvg speedWind from/ knotsBaromVisibWave heightAir tempDewpointWater temp
2018-Feb-25 22:47N 53°56' W 003°07'516.2
2018-Feb-25 22:27N 53°56' W 003°16'716.0
2018-Feb-25 22:00N 53°56' W 003°28'35 8.8
2018-Feb-25 18:04N 54°09' W 004°23'3717.6
2018-Feb-25 15:57N 53°43' W 003°38'817.4
2018-Feb-25 15:30N 53°37' W 003°29'917.5
2018-Feb-25 15:01N 53°32' W 003°17'714.6
2018-Feb-25 14:30N 53°30' W 003°05'612.9
2018-Feb-25 14:00N 53°24' W 003°01'0 0.0
2018-Feb-25 13:28N 53°24' W 003°01'0 0.0
2018-Feb-25 12:58N 53°24' W 003°01'0 0.0
2018-Feb-25 12:30N 53°24' W 003°01'612.3
2018-Feb-25 12:00N 53°29' W 003°05'61 3.4
2018-Feb-24 17:59N 54°09' W 004°25'3817.9
2018-Feb-24 15:52N 53°42' W 003°39'617.6
2018-Feb-24 15:31N 53°38' W 003°31'917.3
2018-Feb-24 15:00N 53°33' W 003°20'816.3
2018-Feb-24 14:30N 53°31' W 003°06'815.4
2018-Feb-24 14:00N 53°24' W 003°00'0 0.4
2018-Feb-24 13:30N 53°24' W 003°01'0 0.0
2018-Feb-24 13:00N 53°24' W 003°01'0 0.0
2018-Feb-24 12:30N 53°24' W 003°01'510.6
2018-Feb-24 12:00N 53°29' W 003°04'712.9
2018-Feb-24 11:30N 53°31' W 003°15'816.6
2018-Feb-24 11:00N 53°36' W 003°27'816.4
2018-Feb-24 10:30N 53°41' W 003°37'816.0
2018-Feb-24 10:00N 53°47' W 003°46'14 2.1
2018-Feb-24 03:31N 53°56' W 003°29'617.1
2018-Feb-24 03:11N 53°56' W 003°19'317.0
2018-Feb-24 02:59N 53°56' W 003°14'816.1
2018-Feb-24 02:31N 53°58' W 003°01'5 8.8
2018-Feb-24 01:55N 54°02' W 002°55'0 0.0
2018-Feb-24 01:25N 54°02' W 002°55'0 0.0
2018-Feb-24 00:49N 54°02' W 002°55'0 0.0
2018-Feb-24 00:30N 54°02' W 002°55'3 6.1
2018-Feb-24 00:00N 54°00' W 002°59'611.5
2018-Feb-23 23:30N 53°57' W 003°07'510.9
2018-Feb-23 23:00N 53°56' W 003°16'714.1
2018-Feb-23 22:31N 53°56' W 003°28'714.7
2018-Feb-23 22:00N 53°58' W 003°39'2 0.3
2018-Feb-23 15:50N 53°57' W 003°36'617.3
2018-Feb-23 15:30N 53°56' W 003°27'917.3
2018-Feb-23 15:00N 53°56' W 003°13'816.0
2018-Feb-23 14:30N 53°59' W 003°00'4 7.0
2018-Feb-23 13:54N 54°02' W 002°55'0 0.0
2018-Feb-23 13:24N 54°02' W 002°55'0 0.0
2018-Feb-23 13:00N 54°02' W 002°55'0 0.0
2018-Feb-23 12:29N 54°02' W 002°55'5 9.6
2018-Feb-23 12:00N 53°59' W 003°01'917.5
2018-Feb-23 11:31N 53°55' W 003°14'917.2
2018-Feb-23 11:01N 53°56' W 003°29'816.5
2018-Feb-23 10:30N 53°59' W 003°42'5 0.8
2018-Feb-23 03:57N 53°57' W 003°33'817.6
2018-Feb-23 03:30N 53°55' W 003°21'917.1
2018-Feb-23 03:00N 53°57' W 003°06'815.5
2018-Feb-23 02:31N 54°02' W 002°56'1 1.3
2018-Feb-23 01:58N 54°02' W 002°55'0 0.0
2018-Feb-23 01:28N 54°02' W 002°55'0 0.0
2018-Feb-23 00:52N 54°02' W 002°55'0 0.0
2018-Feb-23 00:16N 54°02' W 002°55'0 0.0
2018-Feb-22 23:52N 54°02' W 002°55'0 0.4
2018-Feb-22 23:30N 54°02' W 002°55'611.2
2018-Feb-22 23:00N 53°58' W 003°02'714.5
2018-Feb-22 22:30N 53°55' W 003°14'917.3
2018-Feb-22 22:00N 53°56' W 003°28'815.0
2018-Feb-22 21:30N 53°58' W 003°40'16 2.5
2018-Feb-22 14:56N 53°56' W 003°13'12 4.2
2018-Feb-22 12:05N 54°02' W 002°55'717.3
2018-Feb-22 11:40N 53°57' W 003°04'318.9
2018-Feb-22 11:30N 53°56' W 003°09'918.2
2018-Feb-22 11:00N 53°56' W 003°25'917.2
2018-Feb-22 10:30N 53°58' W 003°39'16 2.1
2018-Feb-22 02:54N 53°56' W 003°12'716.6
2018-Feb-22 02:29N 53°58' W 003°02'2 0.5
2018-Feb-21 22:52N 53°58' W 003°04'716.7
2018-Feb-21 22:27N 53°55' W 003°16'715.8
2018-Feb-21 21:59N 53°55' W 003°28'815.8
2018-Feb-21 21:28N 53°58' W 003°41'3 0.5
2018-Feb-21 15:40N 53°57' W 003°36'318.1
2018-Feb-21 15:29N 53°56' W 003°31'917.9
2018-Feb-21 15:00N 53°56' W 003°16'917.1
2018-Feb-21 14:30N 53°58' W 003°02'611.7
2018-Feb-21 14:00N 54°02' W 002°55'0 0.0
2018-Feb-21 13:24N 54°02' W 002°55'0 0.0
2018-Feb-21 13:00N 54°02' W 002°55'0 0.0
2018-Feb-21 12:07N 54°02' W 002°55'0 0.5
2018-Feb-21 12:00N 54°02' W 002°55'714.5
2018-Feb-21 11:30N 53°57' W 003°04'918.9
2018-Feb-21 11:01N 53°55' W 003°20'918.0
2018-Feb-21 10:30N 53°57' W 003°35'917.9
2018-Feb-21 09:59N 54°00' W 003°50'14 2.1
2018-Feb-21 03:19N 53°56' W 003°28'1018.1
2018-Feb-21 02:47N 53°56' W 003°12'517.4
2018-Feb-21 02:30N 53°58' W 003°04'3 0.6
2018-Feb-20 22:31N 53°56' W 003°07'116.7
2018-Feb-20 22:27N 53°56' W 003°09'816.5
2018-Feb-20 21:59N 53°56' W 003°22'917.8
2018-Feb-20 21:30N 53°57' W 003°36'917.9
2018-Feb-20 21:00N 54°00' W 003°51'14 2.6
2018-Feb-20 15:40N 53°55' W 003°29'818.2
2018-Feb-20 15:14N 53°56' W 003°15'418.0
2018-Feb-20 15:00N 53°56' W 003°08'10 3.8
2018-Feb-20 12:29N 54°02' W 002°55'0 0.0
2018-Feb-20 12:00N 54°02' W 002°55'5 9.7
2018-Feb-20 11:31N 53°59' W 003°01'1019.7
2018-Feb-20 11:01N 53°55' W 003°16'918.5
2018-Feb-20 10:31N 53°56' W 003°32'1 0.1
2018-Feb-20 03:27N 53°56' W 003°32'817.6
2018-Feb-20 03:00N 53°56' W 003°19'917.4
2018-Feb-20 02:30N 53°57' W 003°05'714.7
2018-Feb-20 02:00N 54°02' W 002°55'0 0.0
2018-Feb-20 01:29N 54°02' W 002°55'0 0.0
2018-Feb-20 00:50N 54°02' W 002°55'0 0.0
2018-Feb-20 00:29N 54°02' W 002°55'0 0.0
2018-Feb-19 23:59N 54°02' W 002°55'0 0.0
2018-Feb-19 23:23N 54°02' W 002°55'1 1.7
2018-Feb-19 23:01N 54°02' W 002°56'917.0
2018-Feb-19 22:30N 53°56' W 003°07'713.8
2018-Feb-19 22:00N 53°55' W 003°19'918.4
2018-Feb-19 21:30N 53°57' W 003°34'11 1.7
2018-Feb-19 14:52N 53°55' W 003°15'718.7
2018-Feb-19 14:30N 53°58' W 003°04'4 1.2
2018-Feb-19 11:16N 53°56' W 003°09'619.7
2018-Feb-19 10:59N 53°56' W 003°19'918.8
2018-Feb-19 10:30N 53°57' W 003°34'15 1.3
2018-Feb-18 22:18N 53°56' W 003°08'619.6
2018-Feb-18 21:59N 53°55' W 003°19'918.9
2018-Feb-18 21:30N 53°57' W 003°34'12 2.2
2018-Feb-18 15:47N 53°45' W 003°42'518.3
2018-Feb-18 15:30N 53°41' W 003°36'918.9
2018-Feb-18 15:00N 53°35' W 003°24'917.8
2018-Feb-18 14:30N 53°32' W 003°10'917.7
2018-Feb-18 14:00N 53°25' W 003°01'1 1.9
2018-Feb-18 13:30N 53°24' W 003°01'0 0.0
2018-Feb-18 13:00N 53°24' W 003°01'0 0.0
2018-Feb-18 12:30N 53°24' W 003°01'0 0.0
2018-Feb-18 12:00N 53°24' W 003°01'611.6
2018-Feb-18 11:30N 53°29' W 003°05'713.8
2018-Feb-18 11:00N 53°31' W 003°16'918.4
2018-Feb-18 10:29N 53°37' W 003°29'918.7
2018-Feb-18 10:00N 53°43' W 003°40'918.6
2018-Feb-18 09:31N 53°49' W 003°52'15 2.4
2018-Feb-18 03:19N 53°56' W 003°29'919.4
2018-Feb-18 02:50N 53°56' W 003°13'719.7
2018-Feb-18 02:28N 53°59' W 003°01'5 1.6
2018-Feb-17 23:25N 54°02' W 002°55'918.7
2018-Feb-17 22:57N 53°57' W 003°07'918.8
2018-Feb-17 22:29N 53°56' W 003°22'918.3
2018-Feb-17 22:00N 53°57' W 003°37'21 4.5
2018-Feb-17 17:15N 54°03' W 004°11'2518.5
2018-Feb-17 15:56N 53°46' W 003°42'818.3
2018-Feb-17 15:30N 53°40' W 003°34'918.6
2018-Feb-17 15:00N 53°34' W 003°22'816.7
2018-Feb-17 14:30N 53°32' W 003°08'918.0
2018-Feb-17 14:00N 53°24' W 003°00'0 0.2
2018-Feb-17 13:28N 53°24' W 003°01'0 0.0
2018-Feb-17 12:58N 53°24' W 003°01'0 0.0
2018-Feb-17 12:26N 53°24' W 003°01'0 0.5
2018-Feb-17 12:00N 53°24' W 003°01'714.0
2018-Feb-17 11:30N 53°30' W 003°06'714.3
2018-Feb-17 11:00N 53°32' W 003°18'918.2
2018-Feb-17 10:30N 53°37' W 003°30'918.4
2018-Feb-17 10:00N 53°43' W 003°42'918.2
2018-Feb-17 09:30N 53°49' W 003°53'16 2.6
2018-Feb-17 03:16N 53°55' W 003°28'919.1
2018-Feb-17 02:49N 53°56' W 003°13'12 3.2
2018-Feb-16 23:00N 54°02' W 002°55'1018.7
2018-Feb-16 22:30N 53°56' W 003°08'918.0
2018-Feb-16 22:00N 53°56' W 003°23'918.0
2018-Feb-16 21:30N 53°57' W 003°38'6 1.0
2018-Feb-16 15:20N 53°56' W 003°28'919.0
2018-Feb-16 14:50N 53°56' W 003°12'3 0.8
2018-Feb-16 11:26N 53°56' W 003°08'817.7
2018-Feb-16 10:58N 53°56' W 003°22'817.6
2018-Feb-16 10:30N 53°57' W 003°35'31 6.0
2018-Feb-16 05:22N 54°09' W 004°24'4416.6
2018-Feb-16 02:42N 53°56' W 003°13'418.2
2018-Feb-16 02:28N 53°57' W 003°06'  

Dump ship's entire track history